Time;durP1;ratioP1;P1;durP2;ratioP2;P2;SDS_P1;SDS_P2;PMS_P1;PMS_P2;Temp;Humidity;BMP_temperature;BMP_pressure;BME280_temperature;BME280_humidity;BME280_pressure;Samples;Min_cycle;Max_cycle;Signal;HPM_P1;HPM_P2
2021/04/29 00:04:49;;;;;;;37.45;22.55;;;15.20;67.00;;;;;;10066422;28;20056;-80
2021/04/29 00:09:42;;;;;;;38.03;22.92;;;15.20;67.50;;;;;;10066275;28;20046;-79
2021/04/29 00:14:36;;;;;;;38.97;24.13;;;15.20;67.40;;;;;;10066080;28;20050;-78
2021/04/29 00:19:30;;;;;;;45.40;24.52;;;15.20;68.00;;;;;;10065955;28;20458;-82
2021/04/29 00:24:24;;;;;;;45.60;25.95;;;15.10;68.50;;;;;;10048391;28;20049;-81
2021/04/29 00:29:18;;;;;;;42.92;24.73;;;;;;;;;;10065491;28;20059;-80
2021/04/29 00:34:12;;;;;;;46.53;27.73;;;15.10;68.20;;;;;;10067093;28;20057;-80
2021/04/29 00:39:06;;;;;;;48.33;28.67;;;15.20;68.90;;;;;;10065616;28;20049;-79
2021/04/29 00:44:00;;;;;;;51.28;30.15;;;15.20;68.80;;;;;;10065026;28;20045;-80
2021/04/29 00:48:54;;;;;;;53.10;30.40;;;14.90;69.80;;;;;;10066854;28;20049;-81
2021/04/29 00:53:50;;;;;;;60.88;31.10;;;16.20;69.90;;;;;;10048197;28;20053;-83
2021/04/29 00:58:43;;;;;;;64.72;32.28;;;15.00;69.70;;;;;;10065063;28;20087;-82
2021/04/29 01:03:46;;;;;;;66.70;33.63;;;14.40;69.60;;;;;;10064739;28;20045;-82
2021/04/29 01:08:48;;;;;;;64.72;34.83;;;15.00;69.80;;;;;;10064655;28;20053;-84
2021/04/29 01:13:47;;;;;;;74.63;36.15;;;15.00;69.80;;;;;;10064629;28;20056;-84
2021/04/29 01:18:43;;;;;;;72.47;35.33;;;15.00;69.90;;;;;;10046364;28;20116;-83
2021/04/29 01:23:47;;;;;;;69.53;35.88;;;15.00;70.00;;;;;;10063698;28;20045;-83
2021/04/29 01:28:43;;;;;;;68.68;35.08;;;15.90;70.60;;;;;;10030081;28;20455;-81
2021/04/29 01:33:37;;;;;;;71.18;35.45;;;15.30;70.40;;;;;;10046353;28;20091;-84
2021/04/29 01:38:32;;;;;;;70.78;35.95;;;15.00;69.90;;;;;;10063408;28;20087;-84
2021/04/29 01:43:26;;;;;;;73.13;36.08;;;15.00;69.90;;;;;;10047117;28;20567;-86
2021/04/29 01:48:23;;;;;;;74.05;37.55;;;15.00;70.00;;;;;;10047486;28;20041;-84
2021/04/29 01:53:17;;;;;;;79.13;40.10;;;15.00;70.40;;;;;;10070147;28;20045;-84
2021/04/29 01:58:13;;;;;;;80.00;40.15;;;14.90;70.30;;;;;;10044868;28;20094;-84
2021/04/29 02:03:09;;;;;;;84.22;40.88;;;14.90;70.60;;;;;;10063301;28;20068;-85
2021/04/29 02:08:05;;;;;;;76.13;38.50;;;14.90;70.50;;;;;;10045080;28;20060;-82
2021/04/29 02:12:58;;;;;;;76.15;38.80;;;14.90;70.80;;;;;;10062020;28;20520;-82
2021/04/29 02:17:58;;;;;;;74.80;35.30;;;15.00;70.80;;;;;;10044220;28;20041;-79
2021/04/29 02:22:53;;;;;;;77.40;37.33;;;14.90;70.90;;;;;;10062169;28;20048;-79
2021/04/29 02:27:48;;;;;;;63.72;33.47;;;16.00;72.90;;;;;;10043412;28;20054;-82
2021/04/29 02:32:42;;;;;;;68.28;33.50;;;14.80;71.60;;;;;;10061140;28;20045;-81
2021/04/29 02:37:37;;;;;;;73.05;34.38;;;14.70;71.70;;;;;;10060895;28;20041;-82
2021/04/29 02:42:30;;;;;;;67.85;32.35;;;14.70;71.60;;;;;;10061229;28;20527;-83
2021/04/29 02:47:25;;;;;;;69.13;33.13;;;15.90;73.00;;;;;;10043260;28;20049;-82
2021/04/29 02:52:20;;;;;;;61.00;30.33;;;14.80;72.00;;;;;;10026695;28;20053;-84
2021/04/29 02:57:20;;;;;;;61.13;30.52;;;14.00;71.50;;;;;;10062894;28;20049;-81
2021/04/29 03:02:16;;;;;;;62.53;29.83;;;12.90;70.60;;;;;;10042786;28;20115;-81
2021/04/29 03:07:11;;;;;;;61.53;31.90;;;14.70;71.40;;;;;;10059440;28;20403;-81
2021/04/29 03:12:05;;;;;;;51.53;27.75;;;16.50;73.40;;;;;;10061144;28;20045;-81
2021/04/29 03:17:00;;;;;;;51.72;26.75;;;14.80;71.60;;;;;;10044829;28;20045;-82
2021/04/29 03:21:54;;;;;;;56.60;28.33;;;15.60;71.70;;;;;;10060130;28;20049;-82
2021/04/29 03:26:49;;;;;;;59.17;29.50;;;14.70;71.40;;;;;;10059837;28;20057;-81
2021/04/29 03:31:42;;;;;;;59.92;30.90;;;17.20;72.80;;;;;;10042212;28;20045;-78
2021/04/29 03:36:37;;;;;;;59.17;30.30;;;14.70;71.30;;;;;;10059417;28;20048;-79
2021/04/29 03:41:31;;;;;;;67.05;32.42;;;14.70;71.60;;;;;;10059214;28;20057;-79
2021/04/29 03:46:25;;;;;;;69.88;34.85;;;14.70;72.00;;;;;;10059062;28;20052;-78
2021/04/29 03:51:19;;;;;;;72.40;34.90;;;14.70;72.20;;;;;;10059083;28;20117;-78
2021/04/29 03:56:12;;;;;;;74.20;36.88;;;14.70;72.70;;;;;;10041800;28;20507;-85
2021/04/29 04:01:06;;;;;;;74.60;39.50;;;14.70;73.50;;;;;;10041824;28;20053;-83
2021/04/29 04:06:00;;;;;;;76.45;36.50;;;15.80;75.50;;;;;;10068898;28;20628;-85
2021/04/29 04:10:54;;;;;;;63.72;34.95;;;14.60;73.60;;;;;;10060355;28;20411;-83
2021/04/29 04:15:47;;;;;;;62.50;31.88;;;14.60;73.50;;;;;;10009843;28;20367;-85
2021/04/29 04:20:42;;;;;;;69.25;33.88;;;14.60;73.60;;;;;;10048365;28;20052;-85
2021/04/29 04:25:37;;;;;;;64.88;32.58;;;14.60;73.80;;;;;;10066160;28;20555;-81
2021/04/29 04:30:31;;;;;;;70.13;32.53;;;14.50;74.20;;;;;;10048354;28;20091;-79
2021/04/29 04:35:24;;;;;;;64.93;32.53;;;14.50;74.30;;;;;;10065638;28;20519;-81
2021/04/29 04:40:18;;;;;;;63.78;32.38;;;14.50;74.40;;;;;;10031516;28;20061;-82
2021/04/29 04:45:13;;;;;;;68.22;34.03;;;14.50;74.40;;;;;;10047520;28;20059;-80
2021/04/29 04:50:08;;;;;;;65.43;33.30;;;14.60;74.20;;;;;;10048155;28;20057;-80
2021/04/29 04:55:01;;;;;;;75.55;35.80;;;14.60;74.30;;;;;;10066066;28;20416;-80
2021/04/29 04:59:55;;;;;;;72.35;32.22;;;14.40;74.70;;;;;;10066155;28;20064;-81
2021/04/29 05:04:49;;;;;;;62.55;32.95;;;14.40;74.80;;;;;;10064926;28;20048;-80
2021/04/29 05:09:44;;;;;;;61.45;29.58;;;12.80;74.10;;;;;;10063885;28;20045;-81
2021/04/29 05:14:37;;;;;;;66.80;32.45;;;14.50;74.80;;;;;;10047618;28;20049;-78
2021/04/29 05:19:31;;;;;;;56.50;30.95;;;14.50;75.00;;;;;;10063937;28;20061;-80
2021/04/29 05:24:28;;;;;;;61.95;30.90;;;14.40;75.20;;;;;;10045745;28;20049;-81
2021/04/29 05:29:21;;;;;;;58.70;28.05;;;14.40;75.00;;;;;;10027765;28;20116;-81
2021/04/29 05:34:15;;;;;;;57.13;30.08;;;14.40;75.20;;;;;;10062311;28;20178;-80
2021/04/29 05:39:12;;;;;;;55.45;29.73;;;14.00;77.30;;;;;;10062290;28;20042;-81
2021/04/29 05:44:08;;;;;;;67.47;32.25;;;14.40;75.00;;;;;;10062740;28;20061;-81
2021/04/29 05:49:03;;;;;;;61.63;29.92;;;14.40;75.30;;;;;;10046128;28;20123;-81
2021/04/29 05:53:59;;;;;;;56.28;29.15;;;14.30;75.30;;;;;;10061286;28;20045;-80
2021/04/29 05:58:54;;;;;;;63.50;31.95;;;14.40;75.20;;;;;;10044936;28;20053;-81
2021/04/29 06:03:48;;;;;;;56.00;28.45;;;14.40;75.00;;;;;;10049598;28;20095;-82
2021/04/29 06:08:42;;;;;;;50.33;28.33;;;14.60;78.20;;;;;;10061915;28;20045;-82
2021/04/29 06:13:36;;;;;;;57.95;27.52;;;;;;;;;;10061198;28;20453;-84
2021/04/29 06:18:29;;;;;;;55.95;29.23;;;14.90;73.00;;;;;;10067211;28;20163;-84
2021/04/29 06:23:24;;;;;;;55.90;28.95;;;;;;;;;;10046257;28;20114;-86
2021/04/29 06:28:18;;;;;;;56.10;27.98;;;;;;;;;;10061881;28;20144;-81
2021/04/29 06:33:13;;;;;;;47.80;26.13;;;;;;;;;;10043424;28;20522;-80
2021/04/29 06:38:07;;;;;;;45.65;23.40;;;;;;;;;;10059576;28;20049;-77
2021/04/29 06:43:02;;;;;;;46.92;23.58;;;;;;;;;;10030667;28;20059;-81
2021/04/29 06:47:57;;;;;;;46.45;24.25;;;;;;;;;;10041232;28;20055;-81
2021/04/29 06:52:51;;;;;;;49.33;24.48;;;;;;;;;;10058756;28;20096;-79
2021/04/29 06:57:50;;;;;;;47.42;24.42;;;14.70;78.00;;;;;;10024925;28;20053;-80
2021/04/29 07:02:45;;;;;;;48.20;22.88;;;;;;;;;;10055604;28;20037;-82
2021/04/29 07:07:42;;;;;;;47.15;24.38;;;;;;;;;;10059636;28;20403;-83
2021/04/29 07:12:38;;;;;;;42.25;21.98;;;14.80;72.20;;;;;;10059045;28;20041;-83
2021/04/29 07:17:33;;;;;;;45.80;22.42;;;;;;;;;;9994736;28;20056;-82
2021/04/29 07:22:31;;;;;;;47.72;24.35;;;;;;;;;;10041977;28;20108;-81
2021/04/29 07:27:25;;;;;;;48.03;23.30;;;;;;;;;;10039127;28;20061;-78
2021/04/29 07:32:18;;;;;;;49.30;24.38;;;16.40;77.10;;;;;;10058526;28;20694;-77
2021/04/29 07:37:13;;;;;;;45.35;23.52;;;13.70;74.00;;;;;;10057376;28;20539;-79
2021/04/29 07:42:09;;;;;;;46.00;24.10;;;14.80;72.70;;;;;;10041305;28;20053;-81
2021/04/29 07:47:05;;;;;;;49.22;24.70;;;14.90;72.40;;;;;;10025694;28;20045;-76
2021/04/29 07:51:59;;;;;;;52.80;25.10;;;;;;;;;;10054338;28;20046;-78
2021/04/29 07:56:52;;;;;;;52.25;26.10;;;15.10;75.20;;;;;;10017672;28;20044;-76
2021/04/29 08:01:48;;;;;;;54.30;26.80;;;;;;;;;;10046864;28;20073;-81
2021/04/29 08:06:42;;;;;;;47.75;25.98;;;;;;;;;;10049929;28;20804;-81
2021/04/29 08:11:36;;;;;;;48.13;26.40;;;;;;;;;;10064156;28;20053;-83
2021/04/29 08:16:31;;;;;;;51.30;25.02;;;16.10;74.90;;;;;;10031651;28;20077;-79
2021/04/29 08:21:25;;;;;;;49.13;25.75;;;;;;;;;;10056656;28;20045;-79
2021/04/29 08:26:19;;;;;;;46.60;26.50;;;15.00;72.10;;;;;;10046326;28;20053;-81
2021/04/29 08:31:13;;;;;;;48.13;24.33;;;;;;;;;;10068246;28;20048;-79
2021/04/29 08:36:08;;;;;;;49.97;25.15;;;;;;;;;;10045556;28;20042;-79
2021/04/29 08:41:06;;;;;;;53.65;26.85;;;17.30;72.10;;;;;;10076235;28;20088;-83
2021/04/29 08:46:00;;;;;;;53.42;25.83;;;15.70;73.70;;;;;;10071122;28;20510;-77
2021/04/29 08:50:54;;;;;;;46.78;24.40;;;;;;;;;;10062962;28;20377;-77
2021/04/29 08:55:48;;;;;;;52.08;25.15;;;15.30;69.70;;;;;;10045611;28;20085;-80
2021/04/29 09:00:42;;;;;;;47.90;24.40;;;16.60;69.50;;;;;;10063366;28;20266;-81
2021/04/29 09:05:36;;;;;;;42.30;23.00;;;;;;;;;;10045874;28;20096;-81
2021/04/29 09:10:35;;;;;;;54.95;24.15;;;15.30;67.20;;;;;;10046177;28;20049;-81
2021/04/29 09:15:30;;;;;;;41.30;23.50;;;;;;;;;;10012501;28;113676;-82
2021/04/29 09:20:25;;;;;;;41.55;22.33;;;17.50;69.90;;;;;;10023738;28;20050;-81
2021/04/29 09:25:21;;;;;;;43.92;22.67;;;;;;;;;;10021173;28;20050;-83
2021/04/29 09:30:17;;;;;;;41.55;21.25;;;17.40;70.20;;;;;;10020420;28;20045;-81
2021/04/29 09:35:19;;;;;;;39.47;22.17;;;18.20;68.10;;;;;;10021401;28;20050;-78
2021/04/29 09:40:26;;;;;;;42.95;21.50;;;16.60;66.40;;;;;;10032046;28;20115;-79
2021/04/29 09:45:26;;;;;;;47.75;22.60;;;17.10;67.30;;;;;;10019986;28;20134;-80
2021/04/29 09:50:23;;;;;;;42.75;22.80;;;;;;;;;;10003035;28;20120;-80
2021/04/29 09:55:28;;;;;;;43.45;22.13;;;19.10;70.40;;;;;;10020945;28;20148;-80
2021/04/29 10:00:24;;;;;;;40.95;23.08;;;17.80;69.70;;;;;;10020976;28;20073;-79
2021/04/29 10:05:18;;;;;;;45.22;22.38;;;;;;;;;;10021231;28;20091;-80
2021/04/29 10:10:14;;;;;;;47.90;23.08;;;;;;;;;;10021068;28;20062;-81
2021/04/29 10:15:12;;;;;;;42.28;23.15;;;19.00;68.00;;;;;;10009531;28;20050;-82
2021/04/29 10:20:06;;;;;;;50.17;24.25;;;;;;;;;;10022483;28;20053;-81
2021/04/29 10:25:05;;;;;;;45.47;23.30;;;19.60;69.10;;;;;;10006701;28;20153;-81
2021/04/29 10:30:05;;;;;;;41.95;22.48;;;;;;;;;;10000436;28;20074;-82
2021/04/29 10:35:15;;;;;;;44.05;24.00;;;;;;;;;;10027434;28;20053;-89
2021/04/29 10:40:15;;;;;;;46.80;23.92;;;;;;;;;;10004030;28;20061;-81
2021/04/29 10:45:13;;;;;;;42.38;23.13;;;18.20;65.60;;;;;;10025254;28;20064;-83
2021/04/29 10:50:12;;;;;;;35.05;20.02;;;;;;;;;;10017203;28;20472;-81
2021/04/29 10:55:07;;;;;;;42.53;22.73;;;17.70;66.30;;;;;;10038708;28;20050;-81
2021/04/29 11:00:07;;;;;;;44.50;22.83;;;;;;;;;;10038909;28;20046;-84
2021/04/29 11:05:23;;;;;;;42.70;22.92;;;18.70;64.90;;;;;;10022086;28;20073;-82
2021/04/29 11:10:25;;;;;;;46.15;22.85;;;;;;;;;;10007172;28;20062;-82
2021/04/29 11:15:27;;;;;;;42.75;23.60;;;;;;;;;;10040557;28;20046;-85
2021/04/29 11:20:24;;;;;;;39.08;20.83;;;;;;;;;;10034858;28;20113;-84
2021/04/29 11:25:32;;;;;;;43.63;22.83;;;;;;;;;;10029461;28;20066;-86
2021/04/29 11:30:28;;;;;;;37.92;20.95;;;19.10;63.40;;;;;;10021215;28;20046;-82
2021/04/29 11:35:29;;;;;;;40.70;22.70;;;;;;;;;;10025610;28;20045;-82
2021/04/29 11:40:23;;;;;;;41.63;21.43;;;;;;;;;;10021681;28;20411;-87
2021/04/29 11:45:20;;;;;;;38.25;19.17;;;;;;;;;;10029535;28;20781;-89
2021/04/29 11:50:20;;;;;;;38.72;19.95;;;;;;;;;;10045779;28;20057;-85
2021/04/29 11:55:24;;;;;;;44.05;20.13;;;;;;;;;;10051856;28;20038;-85
2021/04/29 12:00:30;;;;;;;41.22;19.42;;;19.30;62.10;;;;;;10046448;28;20058;-82
2021/04/29 12:05:34;;;;;;;34.92;18.33;;;;;;;;;;10037847;28;20046;-83
2021/04/29 12:10:43;;;;;;;31.05;17.98;;;;;;;;;;10005121;28;20049;-81
2021/04/29 12:15:42;;;;;;;31.88;16.30;;;;;;;;;;10024984;28;20049;-82
2021/04/29 12:20:38;;;;;;;32.17;17.05;;;;;;;;;;10006879;28;20045;-82
2021/04/29 12:25:34;;;;;;;30.65;15.70;;;21.80;64.80;;;;;;9988149;28;20643;-84
2021/04/29 12:30:31;;;;;;;35.55;18.65;;;21.10;62.20;;;;;;9969102;28;20170;-79
2021/04/29 12:35:35;;;;;;;34.28;19.10;;;;;;;;;;10016936;28;20045;-80
2021/04/29 12:40:37;;;;;;;36.83;18.58;;;21.70;64.60;;;;;;10021193;28;20488;-82
2021/04/29 12:45:49;;;;;;;35.97;19.77;;;18.10;62.70;;;;;;10021870;28;20133;-79
2021/04/29 12:50:44;;;;;;;41.08;20.27;;;;;;;;;;10018174;28;20057;-77
2021/04/29 12:55:43;;;;;;;40.72;20.98;;;18.60;61.40;;;;;;9996138;28;20125;-78
2021/04/29 13:00:38;;;;;;;40.47;20.27;;;;;;;;;;10007023;28;20046;-79
2021/04/29 13:05:33;;;;;;;42.10;21.25;;;;;;;;;;10021139;28;20104;-79
2021/04/29 13:10:28;;;;;;;42.58;21.55;;;;;;;;;;10021179;28;20085;-79
2021/04/29 13:15:22;;;;;;;42.15;21.20;;;;;;;;;;10003338;28;20046;-78
2021/04/29 13:20:19;;;;;;;36.65;19.65;;;22.10;59.20;;;;;;10020318;28;20080;-79
2021/04/29 13:25:14;;;;;;;40.58;19.38;;;22.90;59.40;;;;;;10018639;28;20054;-78
2021/04/29 13:30:10;;;;;;;35.75;18.85;;;21.30;59.40;;;;;;10020255;28;20463;-78
2021/04/29 13:35:05;;;;;;;39.90;20.15;;;22.00;60.40;;;;;;10020553;28;20050;-77
2021/04/29 13:40:09;;;;;;;39.30;19.40;;;21.00;60.30;;;;;;10020395;28;20062;-78
2021/04/29 13:45:07;;;;;;;34.88;18.17;;;22.00;57.50;;;;;;10003287;28;20092;-78
2021/04/29 13:50:06;;;;;;;32.33;18.20;;;;;;;;;;10019109;28;20077;-78
2021/04/29 13:55:00;;;;;;;39.83;17.60;;;21.20;57.80;;;;;;10002200;28;20054;-78
2021/04/29 13:59:56;;;;;;;30.90;16.77;;;21.90;57.10;;;;;;10018839;28;20066;-79
2021/04/29 14:04:50;;;;;;;33.40;16.17;;;21.10;57.20;;;;;;10008634;28;20401;-78
2021/04/29 14:09:48;;;;;;;25.77;13.73;;;21.30;56.60;;;;;;10019404;28;20054;-78
2021/04/29 14:14:44;;;;;;;20.85;11.60;;;22.20;55.20;;;;;;10017562;28;20500;-76
2021/04/29 14:19:42;;;;;;;27.13;11.90;;;23.00;54.50;;;;;;10016604;28;20053;-77
2021/04/29 14:24:36;;;;;;;21.87;11.50;;;;;;;;;;10017170;28;20041;-76
2021/04/29 14:29:30;;;;;;;21.15;11.18;;;;;;;;;;10018974;28;20528;-83
2021/04/29 14:34:26;;;;;;;18.35;10.05;;;;;;;;;;10017038;28;20859;-83
2021/04/29 14:39:22;;;;;;;22.70;10.07;;;;;;;;;;10003151;28;20524;-87
2021/04/29 14:44:36;;;;;;;21.45;9.65;;;22.50;57.70;;;;;;10037128;28;20046;-89
2021/04/29 14:49:30;;;;;;;20.45;9.27;;;;;;;;;;10036735;28;20102;-87
2021/04/29 14:54:25;;;;;;;19.63;9.70;;;;;;;;;;10024387;28;20042;-86
2021/04/29 14:59:19;;;;;;;18.35;8.52;;;;;;;;;;10020430;28;20049;-88
2021/04/29 15:04:13;;;;;;;20.15;8.63;;;21.90;57.80;;;;;;10023302;28;20050;-88
2021/04/29 15:09:09;;;;;;;19.80;8.35;;;;;;;;;;10036349;28;20050;-88
2021/04/29 15:14:05;;;;;;;16.52;7.63;;;22.50;56.40;;;;;;10019639;28;20080;-76
2021/04/29 15:18:58;;;;;;;22.73;8.15;;;21.40;57.10;;;;;;9999223;28;20462;-76
2021/04/29 15:23:51;;;;;;;21.42;8.52;;;22.70;55.90;;;;;;10017116;28;20056;-77
2021/04/29 15:28:45;;;;;;;21.35;9.45;;;22.30;56.10;;;;;;10015861;28;20081;-77
2021/04/29 15:33:41;;;;;;;15.63;6.70;;;22.50;56.10;;;;;;10016369;28;20053;-79
2021/04/29 15:38:36;;;;;;;14.98;5.32;;;22.70;58.00;;;;;;10017069;28;20144;-77
2021/04/29 15:43:29;;;;;;;10.55;4.70;;;21.10;55.70;;;;;;10016486;28;20050;-76
2021/04/29 15:48:24;;;;;;;9.85;4.68;;;;;;;;;;10016137;28;20050;-81
2021/04/29 15:53:19;;;;;;;10.95;5.30;;;20.30;57.40;;;;;;9998856;28;20149;-75
2021/04/29 15:58:13;;;;;;;9.57;4.00;;;22.00;56.40;;;;;;10014522;28;20073;-78
2021/04/29 16:03:06;;;;;;;8.63;4.47;;;22.80;58.60;;;;;;10015833;28;20045;-79
2021/04/29 16:08:00;;;;;;;10.30;5.05;;;19.80;57.10;;;;;;10016923;28;20054;-79
2021/04/29 16:12:55;;;;;;;13.18;5.00;;;;;;;;;;10017329;28;20407;-81
2021/04/29 16:17:49;;;;;;;12.52;4.93;;;;;;;;;;10014268;28;20436;-81
2021/04/29 16:22:43;;;;;;;12.48;5.25;;;22.00;58.30;;;;;;10026178;28;20050;-78
2021/04/29 16:27:36;;;;;;;11.15;5.32;;;21.80;57.00;;;;;;10023302;28;20053;-81
2021/04/29 16:32:31;;;;;;;14.25;6.93;;;23.60;59.80;;;;;;10005398;28;20065;-77
2021/04/29 16:37:25;;;;;;;11.85;6.28;;;21.70;57.70;;;;;;10008119;28;20073;-79
2021/04/29 16:42:23;;;;;;;15.45;7.88;;;;;;;;;;10021983;28;20054;-79
2021/04/29 16:47:17;;;;;;;12.65;7.07;;;;;;;;;;10021805;28;20050;-77
2021/04/29 16:52:12;;;;;;;14.07;6.55;;;19.40;59.30;;;;;;10005010;28;20046;-78
2021/04/29 16:57:05;;;;;;;11.85;6.13;;;23.30;59.90;;;;;;10022508;28;20061;-78
2021/04/29 17:02:00;;;;;;;19.13;7.00;;;23.20;61.60;;;;;;10021547;28;20435;-77
2021/04/29 17:06:54;;;;;;;17.60;7.53;;;21.10;60.20;;;;;;10009193;28;20100;-76
2021/04/29 17:11:50;;;;;;;17.13;8.02;;;21.10;60.80;;;;;;10011136;28;20049;-78
2021/04/29 17:16:44;;;;;;;12.93;6.97;;;21.10;61.50;;;;;;10017488;28;20053;-80
2021/04/29 17:21:38;;;;;;;19.02;8.43;;;21.10;61.50;;;;;;10006194;28;20611;-76
2021/04/29 17:26:31;;;;;;;20.65;8.50;;;21.20;62.40;;;;;;10010409;28;20611;-76
2021/04/29 17:31:25;;;;;;;18.27;9.70;;;21.00;62.90;;;;;;10016548;28;20069;-77
2021/04/29 17:36:18;;;;;;;18.08;10.02;;;21.00;63.40;;;;;;10019065;28;20437;-77
2021/04/29 17:41:22;;;;;;;26.05;11.43;;;20.90;63.60;;;;;;10002197;28;20160;-78
2021/04/29 17:46:16;;;;;;;19.60;9.40;;;20.90;64.30;;;;;;10007361;28;20575;-77
2021/04/29 17:51:11;;;;;;;20.90;9.88;;;20.90;64.10;;;;;;9999652;28;20046;-77
2021/04/29 17:56:05;;;;;;;17.45;9.43;;;20.90;64.70;;;;;;10008724;28;20056;-76
2021/04/29 18:00:59;;;;;;;17.88;10.70;;;20.90;64.40;;;;;;10033000;28;20041;-78
2021/04/29 18:05:57;;;;;;;16.40;9.40;;;20.90;64.70;;;;;;10018845;28;20038;-77
2021/04/29 18:10:55;;;;;;;26.25;10.95;;;20.80;64.80;;;;;;10019559;28;20073;-76
2021/04/29 18:15:49;;;;;;;18.73;10.23;;;20.80;65.70;;;;;;10001839;28;20496;-75
2021/04/29 18:20:42;;;;;;;26.30;10.80;;;;;;;;;;10017630;28;20511;-77
2021/04/29 18:25:36;;;;;;;21.42;9.93;;;20.20;65.40;;;;;;10008617;28;20045;-77
2021/04/29 18:30:30;;;;;;;17.38;8.80;;;18.60;65.70;;;;;;10014059;28;20512;-78
2021/04/29 18:35:23;;;;;;;22.75;9.18;;;20.00;66.50;;;;;;10019279;28;20046;-78
2021/04/29 18:40:17;;;;;;;23.20;9.95;;;20.00;65.30;;;;;;10018076;28;20405;-79
2021/04/29 18:45:11;;;;;;;25.20;11.15;;;20.10;65.30;;;;;;10017103;28;20408;-77
2021/04/29 18:50:07;;;;;;;18.88;10.57;;;19.90;66.90;;;;;;10018014;28;20499;-80
2021/04/29 18:55:01;;;;;;;22.55;10.23;;;20.90;67.00;;;;;;10006087;28;20405;-78
2021/04/29 18:59:55;;;;;;;17.40;9.80;;;19.70;66.40;;;;;;9978750;28;20400;-77
2021/04/29 19:04:48;;;;;;;21.20;10.02;;;;;;;;;;9978340;28;20493;-79
2021/04/29 19:09:42;;;;;;;20.27;11.07;;;20.40;66.40;;;;;;9979320;28;20057;-75
2021/04/29 19:14:37;;;;;;;20.13;10.90;;;19.80;68.20;;;;;;9978521;28;20060;-77
2021/04/29 19:19:30;;;;;;;29.65;13.45;;;20.10;67.10;;;;;;9977049;28;20076;-77
2021/04/29 19:24:23;;;;;;;25.85;13.63;;;20.10;67.10;;;;;;9978961;28;20485;-79
2021/04/29 19:29:18;;;;;;;23.45;14.70;;;20.00;67.20;;;;;;9977513;28;20054;-80
2021/04/29 19:34:15;;;;;;;30.37;16.90;;;;;;;;;;9994760;28;20501;-79
2021/04/29 19:39:09;;;;;;;32.58;18.33;;;19.20;67.80;;;;;;9977466;28;20054;-79
2021/04/29 19:44:03;;;;;;;30.80;17.52;;;19.10;69.90;;;;;;9979874;28;20482;-83
2021/04/29 19:48:59;;;;;;;28.10;17.23;;;19.30;70.20;;;;;;9997017;28;20493;-82
2021/04/29 19:53:52;;;;;;;33.83;17.13;;;20.40;70.80;;;;;;9984842;28;20050;-85
2021/04/29 19:58:46;;;;;;;30.88;18.27;;;20.30;71.00;;;;;;10001110;28;20045;-80
2021/04/29 20:03:40;;;;;;;31.33;18.98;;;;;;;;;;10001437;28;20038;-87
2021/04/29 20:08:35;;;;;;;34.17;18.90;;;20.20;71.30;;;;;;9985538;28;20054;-80
2021/04/29 20:13:31;;;;;;;36.40;19.98;;;19.00;68.70;;;;;;9985606;28;20048;-81
2021/04/29 20:18:25;;;;;;;36.90;20.98;;;19.20;70.70;;;;;;9967074;28;20073;-80
2021/04/29 20:23:19;;;;;;;37.67;19.30;;;19.90;69.40;;;;;;9983169;28;20038;-77
2021/04/29 20:28:13;;;;;;;34.85;19.60;;;19.20;69.30;;;;;;9988466;28;20064;-87
2021/04/29 20:33:45;;;;;;;34.47;19.63;;;19.30;69.20;;;;;;10051413;28;20421;-86
2021/04/29 20:38:39;;;;;;;42.08;20.92;;;19.20;69.30;;;;;;10040340;28;20056;-82
2021/04/29 20:43:32;;;;;;;35.13;19.80;;;19.30;70.10;;;;;;10057806;28;20046;-88
2021/04/29 20:48:26;;;;;;;34.63;19.90;;;19.20;69.00;;;;;;10056131;28;20069;-82
2021/04/29 20:53:22;;;;;;;35.70;19.70;;;19.20;69.30;;;;;;10032269;28;20045;-81
2021/04/29 20:58:17;;;;;;;37.33;20.92;;;19.20;70.10;;;;;;10016151;28;20050;-81
2021/04/29 21:03:10;;;;;;;37.03;21.25;;;19.10;70.20;;;;;;10016294;28;20054;-82
2021/04/29 21:08:04;;;;;;;33.90;21.10;;;19.00;69.60;;;;;;10016031;28;20046;-85
2021/04/29 21:12:59;;;;;;;35.90;21.27;;;19.00;69.60;;;;;;10018996;28;20485;-81
2021/04/29 21:17:54;;;;;;;34.58;20.90;;;18.60;69.70;;;;;;9998515;28;20046;-80
2021/04/29 21:22:48;;;;;;;41.47;21.55;;;18.90;69.70;;;;;;10003942;28;20042;-84
2021/04/29 21:27:41;;;;;;;39.92;22.17;;;18.80;70.70;;;;;;10008959;28;20114;-88
2021/04/29 21:32:37;;;;;;;36.60;20.65;;;19.30;81.20;;;;;;10044399;28;20050;-86
2021/04/29 21:37:31;;;;;;;38.00;21.38;;;;;;;;;;10054320;28;20046;-86
2021/04/29 21:42:24;;;;;;;39.20;22.05;;;19.10;72.30;;;;;;10042805;28;20124;-82
2021/04/29 21:47:18;;;;;;;42.70;20.75;;;19.90;72.90;;;;;;10034921;28;20082;-85
2021/04/29 21:52:12;;;;;;;37.95;21.73;;;18.70;70.30;;;;;;10030904;28;20500;-77
2021/04/29 21:57:06;;;;;;;40.13;21.05;;;18.40;69.70;;;;;;10026017;28;20068;-77
2021/04/29 22:02:04;;;;;;;36.60;21.75;;;19.10;71.40;;;;;;10026939;28;20049;-75
2021/04/29 22:06:59;;;;;;;39.00;21.40;;;20.10;70.30;;;;;;10027085;28;20054;-77
2021/04/29 22:11:54;;;;;;;39.22;20.55;;;;;;;;;;10025819;28;20042;-74
2021/04/29 22:16:48;;;;;;;41.10;23.17;;;18.90;71.50;;;;;;10024969;28;20458;-76
2021/04/29 22:21:44;;;;;;;36.53;21.63;;;19.40;70.10;;;;;;10025834;28;20046;-76
2021/04/29 22:26:37;;;;;;;42.67;21.73;;;;;;;;;;10027263;28;20050;-75
2021/04/29 22:31:31;;;;;;;41.67;22.42;;;18.80;71.50;;;;;;10021708;28;20058;-74
2021/04/29 22:36:24;;;;;;;37.03;21.45;;;19.70;70.60;;;;;;10026553;28;20049;-74
2021/04/29 22:41:17;;;;;;;38.83;22.15;;;18.50;70.50;;;;;;10025497;28;20053;-73
2021/04/29 22:46:13;;;;;;;38.00;21.48;;;19.20;71.40;;;;;;10024903;28;20128;-73
2021/04/29 22:51:07;;;;;;;40.67;22.58;;;18.20;71.60;;;;;;10023807;28;20050;-73
2021/04/29 22:56:00;;;;;;;40.85;23.13;;;18.10;71.70;;;;;;10023022;28;20057;-89
2021/04/29 23:00:55;;;;;;;39.90;24.20;;;18.10;71.70;;;;;;10028558;28;20058;-89
2021/04/29 23:05:49;;;;;;;37.15;21.83;;;18.10;72.00;;;;;;10029116;28;20077;-87
2021/04/29 23:10:43;;;;;;;38.30;22.55;;;18.00;72.10;;;;;;10029230;28;20166;-87
2021/04/29 23:15:37;;;;;;;44.42;23.05;;;18.00;72.20;;;;;;10030425;28;20046;-89
2021/04/29 23:20:33;;;;;;;43.83;22.52;;;17.90;72.40;;;;;;10029737;28;20515;-88
2021/04/29 23:25:27;;;;;;;40.78;21.17;;;18.00;73.10;;;;;;10028372;28;20107;-88
2021/04/29 23:30:23;;;;;;;35.13;20.58;;;17.90;72.30;;;;;;10008837;28;20416;-86
2021/04/29 23:35:17;;;;;;;18.25;10.20;;;17.90;71.40;;;;;;10005927;28;20049;-85
2021/04/29 23:40:13;;;;;;;17.15;8.15;;;17.80;71.20;;;;;;10021440;28;20429;-87
2021/04/29 23:45:08;;;;;;;25.27;14.15;;;17.80;70.80;;;;;;10021344;28;20060;-86
2021/04/29 23:50:04;;;;;;;26.20;13.90;;;17.80;70.90;;;;;;10022447;28;20552;-87
2021/04/29 23:54:58;;;;;;;34.35;16.67;;;17.90;70.90;;;;;;10022044;28;20056;-88
2021/04/29 23:59:52;;;;;;;31.90;16.60;;;17.80;71.50;;;;;;10023801;28;20116;-87
